YMML/MEL METAR and TAF weather

Enter ICAO airport designator
Station Type Date Time Source
YMML METAR 2021/05/15 02:00 UTC NOAA

YMML 150200Z 22018KT 9999 FEW018 SCT033 11/03 Q1020


Station Type Date Time Source
YMML Decoded METAR 2021/05/15 02:00 UTC NOAA

Melbourne Airport, Australia (YMML) 37-40S 144-50E 141M
May 14, 2021 - 10:00 PM EDT / 2021.05.15 0200 UTC
Wind: from the SW (220 degrees) at 21 MPH (18 KT):0
Visibility: greater than 7 mile(s):0
Sky conditions: partly cloudy
Temperature: 51 F (11 C)
Dew Point: 37 F (3 C)
Relative Humidity: 57%
Pressure (altimeter): 30.12 in. Hg (1020 hPa)
ob: YMML 150200Z 22018KT 9999 FEW018 SCT033 11/03 Q1020
cycle: 2

Station Type Date Time Source
YMML TAF 2021/05/15 03:26 UTC NOAA

TAF
AMD YMML 150208Z 1503/1606 22018G28KT 9999 -SHRA SCT030
FM150500 24012KT 9999 NSW FEW040
FM150900 27006KT 9999 SCT040
FM151500 32010KT 9999 SCT035
FM160000 29014KT 9999 BKN040

Example: see airport list